createdAt,value
2019-05-11T00:00:33.450Z,13.54
2019-05-11T00:01:14.175Z,13.59
2019-05-11T00:01:54.565Z,13.63
2019-05-11T00:02:35.133Z,13.61
2019-05-11T00:03:15.674Z,13.63
2019-05-11T00:04:04.956Z,13.62
2019-05-11T00:04:46.272Z,13.59
2019-05-11T00:05:26.520Z,13.59
2019-05-11T00:06:06.880Z,13.65
2019-05-11T00:06:47.263Z,13.54
2019-05-11T00:07:27.690Z,13.54
2019-05-11T00:08:08.085Z,13.65
2019-05-11T00:08:48.476Z,13.66
2019-05-11T00:09:28.833Z,13.68
2019-05-11T00:10:09.266Z,13.59
2019-05-11T00:10:49.640Z,13.62
2019-05-11T00:11:30.053Z,13.72
2019-05-11T00:12:10.415Z,13.73
2019-05-11T00:12:50.814Z,13.65
2019-05-11T00:13:32.669Z,13.69
2019-05-11T00:14:13.093Z,13.8
2019-05-11T00:14:53.434Z,13.69
2019-05-11T00:15:33.853Z,13.71
2019-05-11T00:16:18.530Z,13.66
2019-05-11T00:16:55.686Z,13.63
2019-05-11T00:17:35.927Z,13.66
2019-05-11T00:18:16.338Z,13.61
2019-05-11T00:18:56.748Z,13.73
2019-05-11T00:24:30.260Z,13.63
2019-05-11T00:25:09.474Z,13.61
2019-05-11T00:25:49.884Z,13.62
2019-05-11T00:26:30.439Z,13.55
2019-05-11T00:27:10.881Z,13.55
2019-05-11T00:27:51.270Z,13.46
2019-05-11T00:28:33.405Z,13.55
2019-05-11T00:29:13.817Z,13.57
2019-05-11T00:29:54.215Z,13.59
2019-05-11T00:30:34.678Z,13.61
2019-05-11T00:31:15.051Z,13.48
2019-05-11T00:31:55.439Z,13.43
2019-05-11T00:32:35.894Z,13.44
2019-05-11T00:33:16.304Z,13.38
2019-05-11T00:33:56.736Z,13.28
2019-05-11T00:34:37.156Z,13.22
2019-05-11T00:35:17.568Z,13.21
2019-05-11T00:35:57.964Z,13.13
2019-05-11T00:36:38.411Z,12.99
2019-05-11T00:37:18.815Z,12.88
2019-05-11T00:37:59.201Z,12.8
2019-05-11T00:38:39.557Z,12.8
2019-05-11T00:39:19.916Z,12.66
2019-05-11T00:40:13.161Z,12.56
2019-05-11T00:40:43.389Z,12.48
2019-05-11T00:41:23.819Z,12.48
2019-05-11T00:43:36.436Z,12.44
2019-05-11T00:44:16.817Z,12.43
2019-05-11T00:44:57.256Z,12.43
2019-05-11T00:45:37.667Z,12.37
2019-05-11T00:46:18.083Z,12.33
2019-05-11T00:46:58.501Z,12.37
2019-05-11T00:47:38.929Z,12.3
2019-05-11T00:48:19.362Z,12.25
2019-05-11T00:48:59.767Z,12.21
2019-05-11T00:49:40.190Z,12.19
2019-05-11T00:50:20.571Z,12.29
2019-05-11T00:51:01.017Z,12.25
2019-05-11T00:51:41.410Z,12.25
2019-05-11T00:52:21.836Z,12.36
2019-05-11T00:53:02.300Z,12.33
2019-05-11T00:53:42.677Z,12.33
2019-05-11T00:54:23.063Z,12.31
2019-05-11T00:55:03.578Z,12.36
2019-05-11T00:55:43.925Z,12.31
2019-05-11T00:56:24.320Z,12.26
2019-05-11T00:57:04.727Z,12.36
2019-05-11T00:57:45.110Z,12.4
2019-05-11T00:58:25.523Z,12.34
2019-05-11T00:59:19.741Z,12.31
2019-05-11T00:59:46.354Z,12.31
2019-05-11T01:00:26.825Z,12.38
2019-05-11T01:01:07.233Z,12.41
2019-05-11T01:01:47.636Z,12.43
2019-05-11T01:02:28.058Z,12.37
2019-05-11T01:03:08.468Z,12.38
2019-05-11T01:03:48.897Z,12.37
2019-05-11T01:04:29.319Z,12.36
2019-05-11T01:05:09.759Z,12.31
2019-05-11T01:05:50.172Z,12.34
2019-05-11T01:06:30.590Z,12.37
2019-05-11T01:07:10.995Z,12.37
2019-05-11T01:07:51.424Z,12.37
2019-05-11T01:09:12.257Z,12.43
2019-05-11T01:09:52.657Z,12.46
2019-05-11T01:10:41.414Z,12.46
2019-05-11T01:11:13.478Z,12.44
2019-05-11T01:11:53.891Z,12.48
2019-05-11T01:12:35.400Z,12.37
2019-05-11T01:13:17.578Z,12.31
2019-05-11T01:13:57.993Z,12.33
2019-05-11T01:14:38.439Z,12.41
2019-05-11T01:15:18.834Z,12.4
2019-05-11T01:15:59.285Z,12.41
2019-05-11T01:16:39.808Z,12.4
2019-05-11T01:17:20.178Z,12.34
2019-05-11T01:18:02.574Z,12.37
2019-05-11T01:18:43.225Z,12.3
2019-05-11T01:19:23.644Z,12.38
2019-05-11T01:20:04.033Z,12.34
2019-05-11T01:20:44.429Z,12.4
2019-05-11T01:21:24.878Z,12.43
2019-05-11T01:22:05.329Z,12.36
2019-05-11T01:22:45.669Z,12.48
2019-05-11T01:23:27.774Z,12.43
2019-05-11T01:24:08.371Z,12.36
2019-05-11T01:24:48.819Z,12.31
2019-05-11T01:25:29.199Z,12.33
2019-05-11T01:26:09.621Z,12.34
2019-05-11T01:26:50.053Z,12.37
2019-05-11T01:27:30.517Z,12.34
2019-05-11T01:28:11.823Z,12.3
2019-05-11T01:28:52.276Z,12.23
2019-05-11T01:29:32.678Z,12.23
2019-05-11T01:30:13.173Z,12.22
2019-05-11T01:30:54.001Z,12.3
2019-05-11T01:31:34.525Z,12.22
2019-05-11T01:32:14.725Z,12.23
2019-05-11T01:32:55.506Z,12.26
2019-05-11T01:33:35.896Z,12.34
2019-05-11T01:34:16.297Z,12.31
2019-05-11T01:34:56.681Z,12.37
2019-05-11T01:35:37.178Z,12.48
2019-05-11T01:36:19.449Z,12.36
2019-05-11T01:36:59.893Z,12.48
2019-05-11T01:37:40.252Z,12.52
2019-05-11T01:38:20.661Z,12.48
2019-05-11T01:39:01.035Z,12.48
2019-05-11T01:39:41.479Z,12.46
2019-05-11T01:40:21.860Z,12.52
2019-05-11T01:41:02.216Z,12.55
2019-05-11T01:41:42.682Z,12.59
2019-05-11T01:42:22.999Z,12.54
2019-05-11T01:43:03.349Z,12.61
2019-05-11T01:43:43.801Z,12.58
2019-05-11T01:44:26.268Z,12.61
2019-05-11T01:45:08.542Z,12.58
2019-05-11T01:45:48.962Z,12.66
2019-05-11T01:46:29.362Z,12.59
2019-05-11T01:47:09.769Z,12.58
2019-05-11T01:47:50.167Z,12.59
2019-05-11T01:48:30.543Z,12.59
2019-05-11T01:49:10.937Z,12.7
2019-05-11T01:49:51.288Z,12.59
2019-05-11T01:50:32.272Z,12.58
2019-05-11T01:51:12.632Z,12.58
2019-05-11T01:51:53.023Z,12.58
2019-05-11T01:52:33.404Z,12.67
2019-05-11T01:53:13.776Z,12.56
2019-05-11T01:53:59.398Z,12.67
2019-05-11T01:54:39.754Z,12.62
2019-05-11T01:55:20.197Z,12.59
2019-05-11T01:56:00.593Z,12.63
2019-05-11T01:56:40.989Z,12.74
2019-05-11T01:57:21.401Z,12.67
2019-05-11T01:58:02.623Z,12.62
2019-05-11T01:58:43.362Z,12.58
2019-05-11T01:59:36.177Z,12.56
2019-05-11T02:00:16.771Z,12.55
2019-05-11T02:00:57.670Z,12.52
2019-05-11T02:01:39.794Z,12.43
2019-05-11T02:02:20.214Z,12.43
2019-05-11T02:03:01.455Z,12.43
2019-05-11T02:03:44.809Z,12.4
2019-05-11T02:04:25.186Z,12.31
2019-05-11T02:05:05.591Z,12.33
2019-05-11T02:05:46.002Z,12.38
2019-05-11T02:06:27.071Z,12.3
2019-05-11T02:07:07.454Z,12.31
2019-05-11T02:07:47.852Z,12.21
2019-05-11T02:08:28.777Z,12.12
2019-05-11T02:09:09.424Z,12.15
2019-05-11T02:10:06.426Z,12.15
2019-05-11T02:10:47.097Z,12.12
2019-05-11T02:11:27.425Z,12.13
2019-05-11T02:12:17.395Z,12.04
2019-05-11T02:12:57.583Z,12.07
2019-05-11T02:13:38.480Z,11.9
2019-05-11T02:14:18.989Z,11.96
2019-05-11T02:14:59.226Z,11.93
2019-05-11T02:15:40.123Z,12.05
2019-05-11T02:16:20.800Z,12.12
2019-05-11T02:17:01.518Z,12.13
2019-05-11T02:17:42.063Z,12.13
2019-05-11T02:18:23.633Z,12.3
2019-05-11T02:19:03.876Z,12.26
2019-05-11T02:19:44.241Z,12.37
2019-05-11T02:20:24.647Z,12.37
2019-05-11T02:21:05.050Z,12.38
2019-05-11T02:21:48.433Z,12.34
2019-05-11T02:22:29.761Z,12.41
2019-05-11T02:23:10.160Z,12.48
2019-05-11T02:23:50.635Z,12.43
2019-05-11T02:24:30.952Z,12.52
2019-05-11T02:25:11.461Z,12.48
2019-05-11T02:25:51.799Z,12.52
2019-05-11T02:26:32.152Z,12.54
2019-05-11T02:27:12.568Z,12.56
2019-05-11T02:27:53.168Z,12.54
2019-05-11T02:28:35.257Z,12.55
2019-05-11T02:29:15.653Z,12.58
2019-05-11T02:29:56.056Z,12.54
2019-05-11T02:30:36.467Z,12.63
2019-05-11T02:31:18.520Z,12.58
2019-05-11T02:31:58.878Z,12.59
2019-05-11T02:32:39.287Z,12.58
2019-05-11T02:33:19.774Z,12.52
2019-05-11T02:34:00.170Z,12.4
2019-05-11T02:34:40.597Z,12.41
2019-05-11T02:35:24.893Z,12.41
2019-05-11T02:36:05.304Z,12.34
2019-05-11T02:36:45.703Z,12.25
2019-05-11T02:37:26.045Z,12.15
2019-05-11T02:38:06.436Z,12.21
2019-05-11T02:38:46.943Z,12.18
2019-05-11T02:39:27.268Z,12.12
2019-05-11T02:40:07.713Z,12.3
2019-05-11T02:40:48.096Z,12.23
2019-05-11T02:41:35.954Z,12.25
2019-05-11T02:42:10.566Z,12.29
2019-05-11T02:42:50.881Z,12.12
2019-05-11T02:43:31.291Z,12.16
2019-05-11T02:44:11.674Z,12.12
2019-05-11T02:44:52.273Z,12.21
2019-05-11T02:45:32.585Z,12.16
2019-05-11T02:46:12.969Z,12.12
2019-05-11T02:46:53.386Z,11.9
2019-05-11T02:47:33.780Z,11.98
2019-05-11T02:48:14.121Z,11.72
2019-05-11T02:48:54.482Z,11.75
2019-05-11T02:50:18.940Z,11.77
2019-05-11T02:50:59.315Z,11.77
2019-05-11T02:51:39.705Z,11.84
2019-05-11T02:52:20.109Z,11.96
2019-05-11T02:53:00.497Z,11.93
2019-05-11T02:53:40.919Z,11.96
2019-05-11T02:54:21.399Z,11.96
2019-05-11T02:55:02.072Z,11.9
2019-05-11T02:55:42.503Z,11.88
2019-05-11T02:56:22.796Z,11.81
2019-05-11T02:57:43.568Z,12.04
2019-05-11T02:58:24.071Z,11.94
2019-05-11T02:59:04.618Z,11.88
2019-05-11T02:59:44.940Z,11.98
2019-05-11T03:00:25.328Z,12
2019-05-11T03:01:05.700Z,12
2019-05-11T03:01:46.111Z,11.93
2019-05-11T03:02:27.348Z,11.96
2019-05-11T03:03:07.715Z,12.03
2019-05-11T03:03:48.101Z,12
2019-05-11T03:04:28.466Z,11.98
2019-05-11T03:05:08.889Z,11.88
2019-05-11T03:05:49.321Z,11.84
2019-05-11T03:06:29.746Z,11.81
2019-05-11T03:07:10.576Z,11.81
2019-05-11T03:07:52.277Z,11.96
2019-05-11T03:08:33.364Z,11.93
2019-05-11T03:09:13.612Z,11.87
2019-05-11T03:09:54.017Z,11.97
2019-05-11T03:11:14.800Z,12.04
2019-05-11T03:11:56.590Z,12.03
2019-05-11T03:12:36.389Z,12.03
2019-05-11T03:13:16.850Z,12.11
2019-05-11T03:13:59.123Z,12.12
2019-05-11T03:14:39.455Z,12.12
2019-05-11T03:15:19.959Z,12.12
2019-05-11T03:16:00.350Z,12.08
2019-05-11T03:16:40.726Z,12.15
2019-05-11T03:17:21.126Z,12.15
2019-05-11T03:18:01.538Z,12
2019-05-11T03:18:41.929Z,12.13
2019-05-11T03:19:22.588Z,12.15
2019-05-11T03:20:03.094Z,12.12
2019-05-11T03:21:23.776Z,12.19
2019-05-11T03:22:04.183Z,12.15
2019-05-11T03:22:44.467Z,12.12
2019-05-11T03:23:24.890Z,12.12
2019-05-11T03:24:05.277Z,12.13
2019-05-11T03:24:45.663Z,12.15
2019-05-11T03:25:26.028Z,12.16
2019-05-11T03:26:06.441Z,12.13
2019-05-11T03:26:46.858Z,12.12
2019-05-11T03:27:27.287Z,12.11
2019-05-11T03:28:07.693Z,12.11
2019-05-11T03:28:48.122Z,12
2019-05-11T03:29:28.546Z,12.15
2019-05-11T03:30:08.977Z,12.12
2019-05-11T03:30:49.385Z,12.15
2019-05-11T03:31:29.805Z,12.11
2019-05-11T03:32:10.209Z,12.03
2019-05-11T03:32:50.648Z,12.15
2019-05-11T03:33:31.056Z,12.13
2019-05-11T03:34:11.480Z,12.13
2019-05-11T03:34:51.883Z,12.12
2019-05-11T03:35:32.351Z,12.11
2019-05-11T03:36:12.941Z,12.15
2019-05-11T03:36:53.288Z,12.13
2019-05-11T03:37:33.809Z,12.13
2019-05-11T03:38:54.459Z,12.18
2019-05-11T03:39:34.853Z,12.13
2019-05-11T03:40:15.222Z,12.18
2019-05-11T03:40:55.639Z,12.26
2019-05-11T03:41:36.071Z,12.31
2019-05-11T03:42:16.481Z,12.26
2019-05-11T03:42:56.892Z,12.29
2019-05-11T03:43:37.315Z,12.29
2019-05-11T03:44:17.726Z,12.26
2019-05-11T03:44:58.186Z,12.33
2019-05-11T03:45:38.621Z,12.37
2019-05-11T03:46:18.919Z,12.31
2019-05-11T03:46:59.301Z,12.36
2019-05-11T03:47:39.705Z,12.34
2019-05-11T03:48:20.221Z,12.38
2019-05-11T03:49:00.624Z,12.25
2019-05-11T03:49:41.887Z,12.23
2019-05-11T03:50:22.244Z,12.25
2019-05-11T03:51:02.696Z,12.23
2019-05-11T03:51:43.029Z,12.29
2019-05-11T03:56:03.016Z,12.26
2019-05-11T03:57:37.264Z,12.3
2019-05-11T03:58:17.862Z,12.33
2019-05-11T03:58:58.822Z,12.34
2019-05-11T03:59:39.248Z,12.33
2019-05-11T04:00:21.281Z,12.33
2019-05-11T04:01:01.680Z,12.29
2019-05-11T04:01:42.067Z,12.36
2019-05-11T04:02:22.446Z,12.37
2019-05-11T04:03:02.887Z,12.33
2019-05-11T04:03:43.225Z,12.37
2019-05-11T04:04:23.652Z,12.31
2019-05-11T04:05:04.021Z,12.33
2019-05-11T04:06:25.070Z,12.34
2019-05-11T04:07:07.151Z,12.33
2019-05-11T04:07:47.563Z,12.37
2019-05-11T04:08:31.419Z,12.37
2019-05-11T04:09:11.788Z,12.3
2019-05-11T04:09:52.199Z,12.4
2019-05-11T04:10:32.667Z,12.37
2019-05-11T04:11:13.072Z,12.38
2019-05-11T04:11:53.440Z,12.3
2019-05-11T04:12:35.541Z,12.36
2019-05-11T04:13:14.335Z,12.36
2019-05-11T04:13:56.488Z,12.3
2019-05-11T04:14:36.866Z,12.3
2019-05-11T04:15:17.721Z,12.33
2019-05-11T04:15:57.665Z,12.3
2019-05-11T04:16:38.055Z,12.36
2019-05-11T04:17:18.461Z,12.34
2019-05-11T04:17:58.831Z,12.38
2019-05-11T04:18:39.587Z,12.37
2019-05-11T04:19:21.671Z,12.33
2019-05-11T04:20:02.080Z,12.34
2019-05-11T04:20:42.486Z,12.36
2019-05-11T04:21:22.872Z,12.29
2019-05-11T04:22:06.950Z,12.3
2019-05-11T04:22:47.372Z,12.34
2019-05-11T04:23:29.658Z,12.38
2019-05-11T04:24:10.091Z,12.36
2019-05-11T04:24:51.968Z,12.3
2019-05-11T04:25:32.426Z,12.36
2019-05-11T04:26:14.712Z,12.38
2019-05-11T04:26:56.777Z,12.38
2019-05-11T04:27:38.142Z,12.37
2019-05-11T04:28:18.637Z,12.3
2019-05-11T04:29:00.772Z,12.38
2019-05-11T05:11:38.470Z,11.27
2019-05-11T05:16:26.763Z,11.35
2019-05-11T05:17:07.898Z,11.42
2019-05-11T05:17:51.121Z,11.35
2019-05-11T05:18:31.580Z,11.31
2019-05-11T05:19:15.519Z,11.44
2019-05-11T05:19:55.964Z,11.39
2019-05-11T05:20:36.453Z,11.39
2019-05-11T05:21:18.392Z,11.36
2019-05-11T05:23:36.366Z,11.35
2019-05-11T05:24:22.106Z,11.31
2019-05-11T05:25:03.560Z,11.35
2019-05-11T05:25:44.520Z,11.36
2019-05-11T05:26:28.649Z,11.38
2019-05-11T05:27:09.085Z,11.35
2019-05-11T05:27:49.474Z,11.38
2019-05-11T05:28:30.392Z,11.46
2019-05-11T05:29:10.707Z,11.44
2019-05-11T05:29:51.083Z,11.46
2019-05-11T05:30:32.270Z,11.36
2019-05-11T05:31:13.633Z,11.48
2019-05-11T05:31:53.992Z,11.45
2019-05-11T05:32:36.329Z,11.48
2019-05-11T05:33:18.686Z,11.53
2019-05-11T05:34:01.310Z,11.53
2019-05-11T05:34:42.554Z,11.56
2019-05-11T05:35:28.320Z,11.66
2019-05-11T05:36:08.667Z,11.69
2019-05-11T05:36:54.198Z,11.69
2019-05-11T05:37:34.606Z,11.67
2019-05-11T05:38:16.802Z,11.78
2019-05-11T05:38:59.407Z,11.72
2019-05-11T05:39:39.760Z,11.81
2019-05-11T05:40:20.274Z,11.81
2019-05-11T05:43:26.629Z,11.96
2019-05-11T05:48:19.442Z,11.98
2019-05-11T05:49:00.950Z,12.01
2019-05-11T05:49:41.366Z,11.97
2019-05-11T05:50:21.745Z,11.94
2019-05-11T05:51:02.587Z,11.93
2019-05-11T05:52:28.359Z,11.96
2019-05-11T05:53:08.618Z,11.93
2019-05-11T05:53:48.982Z,11.93
2019-05-11T05:54:29.414Z,12
2019-05-11T05:55:09.815Z,11.94
2019-05-11T05:55:50.306Z,11.96
2019-05-11T05:56:30.619Z,12
2019-05-11T05:57:11.315Z,11.98
2019-05-11T05:57:52.095Z,11.97
2019-05-11T05:58:32.646Z,11.94
2019-05-11T05:59:13.192Z,11.9
2019-05-11T05:59:53.464Z,11.96
2019-05-11T06:00:33.899Z,11.98
2019-05-11T06:01:14.324Z,12.04
2019-05-11T06:01:54.863Z,12.08
2019-05-11T06:02:41.286Z,11.96
2019-05-11T06:03:21.599Z,12.15
2019-05-11T06:04:01.887Z,12.11
2019-05-11T06:04:43.105Z,12.11
2019-05-11T06:05:23.454Z,12.12
2019-05-11T06:06:03.876Z,12.12
2019-05-11T06:06:44.258Z,12.12
2019-05-11T06:07:27.004Z,12.12
2019-05-11T06:08:52.452Z,12.12
2019-05-11T06:09:32.275Z,12.21
2019-05-11T06:10:12.715Z,12.23
2019-05-11T06:10:55.073Z,12.29
2019-05-11T06:11:35.487Z,12.23
2019-05-11T06:12:16.052Z,12.34
2019-05-11T06:12:56.845Z,12.34
2019-05-11T06:13:44.956Z,12.33
2019-05-11T06:14:17.112Z,12.34
2019-05-11T06:14:57.554Z,12.34
2019-05-11T06:16:19.458Z,12.34
2019-05-11T06:17:00.609Z,12.38
2019-05-11T06:17:44.305Z,12.29
2019-05-11T06:18:24.821Z,12.38
2019-05-11T06:19:05.165Z,12.26
2019-05-11T06:19:45.552Z,12.21
2019-05-11T06:20:25.919Z,12.25
2019-05-11T06:21:06.432Z,12.21
2019-05-11T06:21:46.686Z,12.29
2019-05-11T06:22:27.051Z,12.34
2019-05-11T06:23:47.985Z,12.3
2019-05-11T06:24:28.408Z,12.26
2019-05-11T06:25:09.253Z,12.16
2019-05-11T06:25:49.638Z,12.12
2019-05-11T06:26:29.638Z,12.16
2019-05-11T06:27:12.743Z,12.16
2019-05-11T06:27:53.111Z,12.15
2019-05-11T06:28:34.538Z,12.13
2019-05-11T06:29:21.393Z,12.18
2019-05-11T06:29:58.141Z,12.03
2019-05-11T06:30:38.436Z,12.13
2019-05-11T06:31:22.713Z,12.07
2019-05-11T06:32:03.112Z,12.13
2019-05-11T06:32:44.382Z,12.12
2019-05-11T06:33:28.382Z,12.11
2019-05-11T06:34:10.710Z,12.04
2019-05-11T06:40:40.255Z,12.08
2019-05-11T06:41:21.441Z,12.01
2019-05-11T06:42:02.098Z,12.08
2019-05-11T06:42:42.404Z,12.03
2019-05-11T06:43:22.743Z,11.98
2019-05-11T06:44:03.510Z,12
2019-05-11T06:44:45.515Z,11.94
2019-05-11T06:45:25.865Z,12.01
2019-05-11T06:46:08.254Z,11.94
2019-05-11T06:46:48.637Z,12
2019-05-11T06:47:28.967Z,11.96
2019-05-11T06:48:50.701Z,11.93
2019-05-11T06:49:31.038Z,11.93
2019-05-11T06:50:11.688Z,11.98
2019-05-11T06:50:52.140Z,11.87
2019-05-11T06:51:33.090Z,11.97
2019-05-11T06:52:13.818Z,11.96
2019-05-11T06:52:54.187Z,11.9
2019-05-11T06:53:34.714Z,11.94
2019-05-11T06:54:14.920Z,12.15
2019-05-11T06:54:55.259Z,12.08
2019-05-11T06:55:35.627Z,12.12
2019-05-11T06:56:16.002Z,12.07
2019-05-11T06:56:56.438Z,12.11
2019-05-11T06:57:38.619Z,12.07
2019-05-11T06:58:20.547Z,12.04
2019-05-11T06:59:01.037Z,12.08
2019-05-11T06:59:45.028Z,12.07
2019-05-11T07:00:27.799Z,12.15
2019-05-11T07:01:49.518Z,12.07
2019-05-11T07:02:34.492Z,12.08
2019-05-11T07:03:17.823Z,11.94
2019-05-11T07:03:59.432Z,11.98
2019-05-11T07:04:39.705Z,11.94
2019-05-11T07:05:20.224Z,11.96
2019-05-11T07:06:00.580Z,12.01
2019-05-11T07:06:40.953Z,11.94
2019-05-11T07:07:22.262Z,11.98
2019-05-11T07:08:03.132Z,12.03
2019-05-11T07:08:43.386Z,11.96
2019-05-11T07:09:23.822Z,11.98
2019-05-11T07:10:08.494Z,12.05
2019-05-11T07:10:49.557Z,11.96
2019-05-11T07:11:29.980Z,12.05
2019-05-11T07:12:10.442Z,12.07
2019-05-11T07:12:50.738Z,12.12
2019-05-11T07:13:31.399Z,12.13
2019-05-11T07:14:20.296Z,12.13
2019-05-11T07:14:54.590Z,12.13
2019-05-11T07:15:35.209Z,12.13
2019-05-11T07:16:16.664Z,12.31
2019-05-11T07:16:58.613Z,12.25
2019-05-11T07:17:39.002Z,12.25
2019-05-11T07:18:19.383Z,12.3
2019-05-11T07:18:59.912Z,12.33
2019-05-11T07:19:40.312Z,12.31
2019-05-11T07:20:21.630Z,12.34
2019-05-11T07:21:02.014Z,12.33
2019-05-11T07:21:42.482Z,12.33
2019-05-11T07:22:22.892Z,12.29
2019-05-11T07:23:03.967Z,12.3
2019-05-11T07:29:59.366Z,12.38
2019-05-11T07:30:41.967Z,12.4
2019-05-11T07:31:24.001Z,12.31
2019-05-11T07:32:09.525Z,12.38
2019-05-11T07:32:44.766Z,12.36
2019-05-11T07:33:28.743Z,12.37
2019-05-11T07:34:10.738Z,12.25
2019-05-11T07:34:51.163Z,12.38
2019-05-11T07:35:31.547Z,12.26
2019-05-11T07:36:11.965Z,12.22
2019-05-11T07:36:57.470Z,12.23
2019-05-11T07:37:38.173Z,12.26
2019-05-11T07:38:18.318Z,12.25
2019-05-11T07:39:40.014Z,12.34
2019-05-11T07:40:22.717Z,12.29
2019-05-11T07:41:03.904Z,12.29
2019-05-11T07:41:47.780Z,12.23
2019-05-11T07:42:28.772Z,12.23
2019-05-11T07:43:09.760Z,12.38
2019-05-11T07:43:49.320Z,12.33
2019-05-11T07:44:37.806Z,12.3
2019-05-11T07:45:12.418Z,12.26
2019-05-11T07:45:52.801Z,12.36
2019-05-11T07:46:37.420Z,12.21
2019-05-11T07:47:19.455Z,12.19
2019-05-11T07:47:59.541Z,12.19
2019-05-11T07:48:40.522Z,12.33
2019-05-11T07:49:23.617Z,12.34
2019-05-11T07:50:04.461Z,12.36
2019-05-11T07:50:44.851Z,12.34
2019-05-11T07:51:25.242Z,12.4
2019-05-11T07:52:07.688Z,12.34
2019-05-11T07:52:48.252Z,12.34
2019-05-11T07:53:29.291Z,12.37
2019-05-11T07:54:09.697Z,12.36
2019-05-11T07:54:53.160Z,12.26
2019-05-11T07:55:35.526Z,12.38
2019-05-11T07:56:19.836Z,12.37
2019-05-11T07:57:01.342Z,12.3
2019-05-11T07:57:41.572Z,12.26
2019-05-11T07:58:22.694Z,12.16
2019-05-11T07:59:04.880Z,12.29
2019-05-11T07:59:48.406Z,12.22
2019-05-11T08:00:30.721Z,12.22
2019-05-11T08:01:11.313Z,12.23
2019-05-11T08:08:08.668Z,12.48
2019-05-11T08:08:45.865Z,12.54
2019-05-11T08:09:27.768Z,12.51
2019-05-11T08:10:08.145Z,12.54
2019-05-11T08:10:48.250Z,12.51
2019-05-11T08:11:31.434Z,12.43
2019-05-11T08:12:09.489Z,12.46
2019-05-11T08:12:49.804Z,12.48
2019-05-11T08:13:30.142Z,12.58
2019-05-11T08:14:10.565Z,12.56
2019-05-11T08:15:00.971Z,12.56
2019-05-11T08:17:08.769Z,12.55
2019-05-11T08:17:49.286Z,12.48
2019-05-11T08:18:29.691Z,12.46
2019-05-11T08:19:10.877Z,12.55
2019-05-11T08:19:50.844Z,12.54
2019-05-11T08:20:31.051Z,12.58
2019-05-11T08:21:14.903Z,12.54
2019-05-11T08:21:55.260Z,12.51
2019-05-11T08:22:37.681Z,12.58
2019-05-11T08:23:18.003Z,12.54
2019-05-11T08:23:59.511Z,12.56
2019-05-11T08:24:41.536Z,12.56
2019-05-11T08:25:21.905Z,12.59
2019-05-11T08:26:03.277Z,12.58
2019-05-11T08:26:43.713Z,12.56
2019-05-11T08:27:24.185Z,12.58
2019-05-11T08:28:04.423Z,12.56
2019-05-11T08:28:45.247Z,12.56
2019-05-11T08:29:27.800Z,12.59
2019-05-11T08:30:08.462Z,12.58
2019-05-11T08:30:50.095Z,12.62
2019-05-11T08:31:30.580Z,12.61
2019-05-11T08:32:10.840Z,12.62
2019-05-11T08:32:55.297Z,12.58
2019-05-11T08:33:38.856Z,12.59
2019-05-11T08:34:18.211Z,12.61
2019-05-11T08:34:58.515Z,12.54
2019-05-11T08:35:39.435Z,12.56
2019-05-11T08:36:21.278Z,12.56
2019-05-11T08:37:01.689Z,12.54
2019-05-11T08:37:44.376Z,12.58
2019-05-11T08:38:24.748Z,12.61
2019-05-11T08:39:07.075Z,12.54
2019-05-11T08:39:48.278Z,12.61
2019-05-11T08:40:34.852Z,12.71
2019-05-11T08:41:15.218Z,12.77
2019-05-11T08:41:55.620Z,12.88
2019-05-11T08:42:37.810Z,12.84
2019-05-11T08:43:22.091Z,12.95
2019-05-11T08:44:00.417Z,12.92
2019-05-11T08:44:40.858Z,12.95
2019-05-11T08:45:24.620Z,12.95
2019-05-11T08:46:01.798Z,13.06
2019-05-11T08:46:42.345Z,13.03
2019-05-11T08:47:25.179Z,13.07
2019-05-11T08:48:08.802Z,13.09
2019-05-11T08:48:49.280Z,13.07
2019-05-11T08:49:33.776Z,13.13
2019-05-11T08:50:15.357Z,13.16
2019-05-11T08:50:54.595Z,13.21
2019-05-11T08:51:38.280Z,13.16
2019-05-11T08:52:18.617Z,13.17
2019-05-11T08:54:08.916Z,13.25
2019-05-11T08:54:49.193Z,13.21
2019-05-11T08:55:32.540Z,13.24
2019-05-11T08:56:13.370Z,13.25
2019-05-11T08:56:58.682Z,13.22
2019-05-11T08:57:38.697Z,13.24
2019-05-11T08:58:19.316Z,13.24
2019-05-11T08:59:01.463Z,13.22
2019-05-11T09:01:18.446Z,13.29
2019-05-11T09:01:58.699Z,13.36
2019-05-11T09:02:39.982Z,13.36
2019-05-11T09:03:20.276Z,13.39
2019-05-11T09:04:01.683Z,13.48
2019-05-11T09:04:42.249Z,13.53
2019-05-11T09:05:22.492Z,13.59
2019-05-11T09:06:02.971Z,13.51
2019-05-11T09:06:47.912Z,13.5
2019-05-11T09:07:27.759Z,13.55
2019-05-11T09:08:08.184Z,13.57
2019-05-11T09:08:49.479Z,13.59
2019-05-11T09:09:29.764Z,13.57
2019-05-11T09:10:12.258Z,13.68
2019-05-11T09:10:52.615Z,13.71
2019-05-11T09:11:33.059Z,13.66
2019-05-11T09:12:13.378Z,13.73
2019-05-11T09:12:53.832Z,13.62
2019-05-11T09:13:34.323Z,13.76
2019-05-11T09:14:14.710Z,13.76
2019-05-11T09:14:55.262Z,13.81
2019-05-11T09:15:37.935Z,13.81
2019-05-11T09:16:18.663Z,13.93
2019-05-11T09:16:57.828Z,13.98
2019-05-11T09:17:38.302Z,13.88
2019-05-11T09:18:18.838Z,13.93
2019-05-11T09:18:58.725Z,13.91
2019-05-11T09:19:39.162Z,14.02
2019-05-11T09:20:19.474Z,14.08
2019-05-11T09:21:01.918Z,14.09
2019-05-11T09:21:43.250Z,14.05
2019-05-11T09:22:28.283Z,14.06
2019-05-11T09:23:08.273Z,14.01
2019-05-11T09:23:48.739Z,14.01
2019-05-11T09:24:30.408Z,14.02
2019-05-11T09:25:10.517Z,14.01
2019-05-11T09:25:50.864Z,14.06
2019-05-11T09:26:31.252Z,13.94
2019-05-11T09:28:09.369Z,14.04
2019-05-11T09:28:49.548Z,14.02
2019-05-11T09:29:30.201Z,13.98
2019-05-11T09:30:10.566Z,14.01
2019-05-11T09:30:51.997Z,14.02
2019-05-11T09:31:32.361Z,13.96
2019-05-11T09:32:13.163Z,13.96
2019-05-11T09:32:53.275Z,13.99
2019-05-11T09:33:33.706Z,13.98
2019-05-11T09:34:14.129Z,13.96
2019-05-11T09:34:54.792Z,14.04
2019-05-11T09:35:46.627Z,13.98
2019-05-11T09:36:17.687Z,14.08
2019-05-11T09:36:58.320Z,14.01
2019-05-11T09:37:38.037Z,13.96
2019-05-11T09:38:18.524Z,14.06
2019-05-11T09:38:58.095Z,14.08
2019-05-11T09:40:19.726Z,14.13
2019-05-11T09:41:00.447Z,14.01
2019-05-11T09:41:40.688Z,13.96
2019-05-11T09:42:22.982Z,14.09
2019-05-11T09:43:03.469Z,14.11
2019-05-11T09:43:43.768Z,14.11
2019-05-11T09:44:24.473Z,14.08
2019-05-11T09:45:08.615Z,14.13
2019-05-11T09:45:51.758Z,14.01
2019-05-11T09:46:29.282Z,14.12
2019-05-11T09:47:09.715Z,14.09
2019-05-11T09:47:50.111Z,14.19
2019-05-11T09:48:32.217Z,14.17
2019-05-11T09:49:12.584Z,14.2
2019-05-11T09:49:53.847Z,14.21
2019-05-11T09:50:34.347Z,14.17
2019-05-11T09:51:14.724Z,14.27
2019-05-11T09:51:59.990Z,14.3
2019-05-11T09:52:40.348Z,14.29
2019-05-11T09:53:22.661Z,14.36
2019-05-11T09:54:02.887Z,14.3
2019-05-11T09:54:43.984Z,14.34
2019-05-11T09:55:30.906Z,14.29
2019-05-11T09:56:11.487Z,14.26
2019-05-11T09:56:54.167Z,14.19
2019-05-11T09:57:34.447Z,14.2
2019-05-11T09:58:14.833Z,14.23
2019-05-11T09:58:58.136Z,14.24
2019-05-11T09:59:38.452Z,14.16
2019-05-11T10:00:18.314Z,14.2
2019-05-11T10:01:00.871Z,14.26
2019-05-11T10:01:41.453Z,14.29
2019-05-11T10:02:23.829Z,14.31
2019-05-11T10:03:03.937Z,14.27
2019-05-11T10:03:44.321Z,14.31
2019-05-11T10:04:25.083Z,14.3
2019-05-11T10:05:08.228Z,14.31
2019-05-11T10:05:49.729Z,14.45
2019-05-11T10:06:30.317Z,14.42
2019-05-11T10:07:10.660Z,14.44
2019-05-11T10:07:51.010Z,14.31
2019-05-11T10:08:31.432Z,14.39
2019-05-11T10:09:12.548Z,14.48
2019-05-11T10:09:53.112Z,14.38
2019-05-11T10:10:34.013Z,14.41
2019-05-11T10:11:14.375Z,14.49
2019-05-11T10:11:55.149Z,14.59
2019-05-11T10:12:37.712Z,14.49
2019-05-11T10:13:18.726Z,14.48
2019-05-11T10:13:58.893Z,14.54
2019-05-11T10:14:39.440Z,14.53
2019-05-11T10:15:19.735Z,14.56
2019-05-11T10:16:06.341Z,14.54
2019-05-11T10:16:40.554Z,14.52
2019-05-11T10:18:41.572Z,14.63
2019-05-11T10:19:23.908Z,14.61
2019-05-11T10:20:04.283Z,14.61
2019-05-11T10:20:44.695Z,14.63
2019-05-11T10:21:25.111Z,14.64
2019-05-11T10:22:07.852Z,14.74
2019-05-11T10:22:50.163Z,14.69
2019-05-11T10:23:30.581Z,14.71
2019-05-11T10:24:11.424Z,14.74
2019-05-11T10:24:51.838Z,14.82
2019-05-11T10:25:35.930Z,14.74
2019-05-11T10:26:18.565Z,14.79
2019-05-11T10:26:57.958Z,14.74
2019-05-11T10:27:38.484Z,14.78
2019-05-11T10:28:18.497Z,14.79
2019-05-11T10:28:58.826Z,14.87
2019-05-11T10:29:39.208Z,14.93
2019-05-11T11:06:28.400Z,16.59